Time;durP1;ratioP1;P1;durP2;ratioP2;P2;SDS_P1;SDS_P2;PMS_P1;PMS_P2;Temp;Humidity;BMP_temperature;BMP_pressure;BME280_temperature;BME280_humidity;BME280_pressure;Samples;Min_cycle;Max_cycle;Signal;HPM_P1;HPM_P2
2021/09/25 00:00:54;;;;;;;23.90;5.60;;;17.00;99.90;;;;;;5100040;28;20039;-82
2021/09/25 00:03:20;;;;;;;24.02;5.95;;;17.10;99.90;;;;;;5080393;28;20123;-82
2021/09/25 00:05:45;;;;;;;22.65;5.70;;;17.10;99.90;;;;;;5103318;28;20096;-82
2021/09/25 00:08:13;;;;;;;23.65;5.75;;;17.10;99.90;;;;;;5109054;27;20039;-82
2021/09/25 00:10:39;;;;;;;23.30;5.82;;;17.10;99.90;;;;;;5073762;27;20375;-82
2021/09/25 00:13:05;;;;;;;30.33;5.45;;;17.10;99.90;;;;;;5102686;28;20035;-82
2021/09/25 00:15:32;;;;;;;24.45;5.65;;;17.00;99.90;;;;;;5099056;28;20535;-82
2021/09/25 00:18:00;;;;;;;26.60;5.90;;;17.10;99.90;;;;;;5094708;28;20044;-82
2021/09/25 00:20:26;;;;;;;18.95;5.55;;;17.10;99.90;;;;;;5090063;28;20042;-82
2021/09/25 00:22:52;;;;;;;19.98;5.25;;;17.10;99.90;;;;;;5087322;28;20079;-81
2021/09/25 00:25:18;;;;;;;26.20;6.22;;;17.10;99.90;;;;;;5085361;28;20067;-82
2021/09/25 00:27:44;;;;;;;27.65;6.18;;;17.10;99.90;;;;;;5085054;28;20064;-82
2021/09/25 00:30:11;;;;;;;28.33;6.18;;;17.10;99.90;;;;;;5082351;28;21739;-82
2021/09/25 00:32:37;;;;;;;30.20;7.05;;;17.00;99.90;;;;;;5098046;28;20445;-81
2021/09/25 00:35:03;;;;;;;23.75;6.03;;;17.00;99.90;;;;;;5098455;28;20036;-82
2021/09/25 00:37:29;;;;;;;32.40;7.13;;;17.00;99.90;;;;;;5083210;28;20039;-82
2021/09/25 00:39:55;;;;;;;28.10;6.50;;;17.00;99.90;;;;;;5101089;27;20034;-82
2021/09/25 00:42:22;;;;;;;32.55;7.03;;;17.00;99.90;;;;;;5100420;28;20049;-82
2021/09/25 00:44:48;;;;;;;28.25;6.88;;;17.00;99.90;;;;;;5103691;27;20122;-82
2021/09/25 00:47:14;;;;;;;34.10;7.40;;;17.00;99.90;;;;;;5077885;28;20503;-82
2021/09/25 00:49:40;;;;;;;25.17;6.72;;;17.00;99.90;;;;;;5100054;28;20049;-82
2021/09/25 00:52:06;;;;;;;28.33;6.85;;;17.00;99.90;;;;;;5098738;28;20108;-82
2021/09/25 00:54:31;;;;;;;22.95;6.07;;;17.00;99.90;;;;;;5096101;28;20063;-82
2021/09/25 00:56:58;;;;;;;26.05;6.88;;;16.90;99.90;;;;;;5101469;28;20082;-82
2021/09/25 00:59:24;;;;;;;29.63;6.95;;;17.00;99.90;;;;;;5101722;28;20179;-82
2021/09/25 01:01:50;;;;;;;31.75;7.18;;;17.00;99.90;;;;;;5098438;27;20187;-82
2021/09/25 01:04:17;;;;;;;24.13;6.95;;;17.10;99.90;;;;;;5097671;27;20052;-81
2021/09/25 01:06:43;;;;;;;35.03;6.63;;;17.10;99.90;;;;;;5088158;28;20043;-82
2021/09/25 01:09:09;;;;;;;27.42;6.68;;;17.00;99.90;;;;;;5100013;28;20776;-82
2021/09/25 01:11:35;;;;;;;32.95;6.63;;;17.00;99.90;;;;;;5083601;28;20133;-82
2021/09/25 01:14:01;;;;;;;27.77;6.88;;;17.00;99.90;;;;;;5107596;27;20880;-81
2021/09/25 01:16:27;;;;;;;29.10;6.57;;;17.00;99.90;;;;;;5083791;27;20069;-82
2021/09/25 01:18:53;;;;;;;33.25;6.75;;;17.10;99.90;;;;;;5084272;27;20350;-82
2021/09/25 01:21:18;;;;;;;23.27;6.47;;;17.10;99.90;;;;;;5084106;27;20045;-81
2021/09/25 01:23:44;;;;;;;35.42;7.55;;;17.00;99.90;;;;;;5086290;27;20035;-81
2021/09/25 01:26:11;;;;;;;24.35;6.82;;;17.10;99.90;;;;;;5100563;27;20043;-81
2021/09/25 01:28:38;;;;;;;24.77;7.22;;;17.10;99.90;;;;;;5103305;27;20049;-81
2021/09/25 01:31:41;;;;;;;31.73;7.07;;;17.10;99.90;;;;;;5118424;27;20108;-81
2021/09/25 01:34:07;;;;;;;32.65;7.65;;;17.10;99.90;;;;;;5127534;27;20137;-81
2021/09/25 01:36:33;;;;;;;31.83;8.00;;;17.00;99.90;;;;;;5109967;27;20118;-82
2021/09/25 01:38:58;;;;;;;22.45;7.18;;;17.10;99.90;;;;;;5107478;27;20051;-82
2021/09/25 01:41:24;;;;;;;29.90;7.22;;;17.10;99.90;;;;;;5103413;27;20406;-82
2021/09/25 01:43:50;;;;;;;25.85;6.70;;;17.10;99.90;;;;;;5101864;27;20039;-82
2021/09/25 01:46:19;;;;;;;23.67;7.10;;;17.20;99.90;;;;;;5102985;27;20427;-81
2021/09/25 01:48:45;;;;;;;33.05;7.05;;;17.00;99.90;;;;;;5102023;27;20039;-80
2021/09/25 01:51:12;;;;;;;27.85;6.63;;;17.10;99.90;;;;;;5112755;27;20038;-78
2021/09/25 01:53:39;;;;;;;27.42;7.22;;;17.10;99.90;;;;;;5131924;27;20084;-81
2021/09/25 01:56:11;;;;;;;28.90;7.00;;;17.10;99.90;;;;;;5110648;27;20050;-79
2021/09/25 01:58:38;;;;;;;33.03;7.18;;;17.10;99.90;;;;;;5114195;27;20450;-81
2021/09/25 02:01:05;;;;;;;28.75;7.10;;;17.10;99.90;;;;;;5095209;27;20767;-78
2021/09/25 02:03:35;;;;;;;28.27;8.13;;;17.10;99.90;;;;;;5113663;27;20035;-82
2021/09/25 02:06:06;;;;;;;34.15;7.82;;;17.10;99.90;;;;;;5113374;27;20073;-82
2021/09/25 02:08:32;;;;;;;25.90;7.18;;;17.10;99.90;;;;;;5111907;27;20039;-81
2021/09/25 02:10:59;;;;;;;30.77;7.93;;;17.10;99.90;;;;;;5080815;27;20336;-83
2021/09/25 02:13:26;;;;;;;30.58;7.47;;;17.10;99.90;;;;;;5101013;27;20376;-83
2021/09/25 02:15:53;;;;;;;23.63;7.05;;;17.00;99.90;;;;;;5102298;27;20051;-82
2021/09/25 02:18:19;;;;;;;31.55;6.88;;;17.10;99.90;;;;;;5119419;27;20074;-82
2021/09/25 02:20:44;;;;;;;24.98;6.97;;;17.00;99.90;;;;;;5120808;27;20070;-83
2021/09/25 02:23:10;;;;;;;24.90;6.50;;;17.00;99.90;;;;;;5079870;27;20035;-83
2021/09/25 02:25:36;;;;;;;36.58;7.10;;;17.00;99.90;;;;;;5102668;27;20042;-83
2021/09/25 02:28:02;;;;;;;29.40;7.15;;;17.00;99.90;;;;;;5081435;27;20058;-82
2021/09/25 02:30:28;;;;;;;29.35;7.47;;;17.00;99.90;;;;;;5103219;27;20074;-82
2021/09/25 02:32:54;;;;;;;31.52;6.82;;;17.00;99.90;;;;;;5120982;27;20467;-82
2021/09/25 02:35:21;;;;;;;28.67;6.82;;;17.00;99.90;;;;;;5119774;27;20047;-82
2021/09/25 02:37:47;;;;;;;26.98;6.93;;;17.00;99.90;;;;;;5082698;27;20047;-82
2021/09/25 02:40:17;;;;;;;30.35;7.10;;;17.00;99.90;;;;;;5085330;28;20084;-82
2021/09/25 02:42:44;;;;;;;26.08;6.82;;;16.90;99.90;;;;;;5102729;28;20042;-83
2021/09/25 02:45:11;;;;;;;26.33;7.22;;;17.00;99.90;;;;;;5088415;27;20108;-82
2021/09/25 02:47:38;;;;;;;34.45;7.30;;;17.00;99.90;;;;;;5102615;27;20499;-82
2021/09/25 02:50:07;;;;;;;26.85;7.07;;;17.00;99.90;;;;;;5079883;27;20153;-82
2021/09/25 02:52:33;;;;;;;32.95;7.65;;;17.00;99.90;;;;;;5104421;27;20362;-83
2021/09/25 02:54:59;;;;;;;26.33;7.10;;;17.00;99.90;;;;;;5057253;28;20043;-82
2021/09/25 02:57:24;;;;;;;28.63;6.93;;;17.00;99.90;;;;;;5085277;27;20402;-82
2021/09/25 02:59:50;;;;;;;30.58;7.20;;;16.90;99.90;;;;;;5106522;28;20031;-82
2021/09/25 03:02:16;;;;;;;34.00;7.65;;;16.90;99.90;;;;;;5101997;28;20111;-84
2021/09/25 03:04:41;;;;;;;31.15;7.20;;;16.90;99.90;;;;;;5103981;28;20191;-82
2021/09/25 03:07:08;;;;;;;28.58;7.85;;;16.80;99.90;;;;;;5110146;27;20488;-82
2021/09/25 03:09:34;;;;;;;24.73;7.07;;;16.80;99.90;;;;;;5111094;28;20039;-82
2021/09/25 03:12:00;;;;;;;32.58;7.80;;;16.80;99.90;;;;;;5105980;28;20053;-82
2021/09/25 03:14:26;;;;;;;29.60;7.65;;;16.80;99.90;;;;;;5101427;28;20123;-82
2021/09/25 03:16:53;;;;;;;30.73;7.95;;;16.80;99.90;;;;;;5098987;28;20465;-82
2021/09/25 03:19:19;;;;;;;35.47;7.70;;;16.80;99.90;;;;;;5101011;28;20514;-83
2021/09/25 03:21:44;;;;;;;33.35;8.23;;;16.80;99.90;;;;;;5104234;27;20058;-82
2021/09/25 03:24:10;;;;;;;33.50;7.72;;;16.80;99.90;;;;;;5084439;28;20471;-83
2021/09/25 03:26:36;;;;;;;30.60;8.13;;;16.80;99.90;;;;;;5104083;28;20035;-82
2021/09/25 03:29:02;;;;;;;37.60;8.13;;;16.80;99.90;;;;;;5106301;28;20051;-82
2021/09/25 03:31:28;;;;;;;36.90;8.38;;;16.80;99.90;;;;;;5108360;28;20040;-82
2021/09/25 03:33:54;;;;;;;30.98;8.43;;;16.80;99.90;;;;;;5106856;28;20054;-82
2021/09/25 03:36:19;;;;;;;38.05;9.27;;;16.80;99.90;;;;;;5079715;28;20126;-82
2021/09/25 03:38:45;;;;;;;29.15;7.80;;;16.80;99.90;;;;;;5097433;28;20086;-81
2021/09/25 03:41:11;;;;;;;32.67;8.43;;;16.90;99.90;;;;;;5124143;27;20054;-82
2021/09/25 03:43:36;;;;;;;32.88;8.27;;;16.90;99.90;;;;;;5101288;28;20484;-82
2021/09/25 03:46:02;;;;;;;40.05;8.70;;;16.90;99.90;;;;;;5122015;28;20095;-83
2021/09/25 03:48:27;;;;;;;39.13;8.63;;;16.90;99.90;;;;;;5107318;28;20522;-81
2021/09/25 03:50:53;;;;;;;32.92;8.23;;;16.90;99.90;;;;;;5105376;27;20051;-82
2021/09/25 03:53:21;;;;;;;38.72;8.40;;;16.90;99.90;;;;;;5091075;28;20027;-82
2021/09/25 03:55:47;;;;;;;32.78;7.60;;;16.90;99.90;;;;;;5103864;27;20055;-82
2021/09/25 03:58:12;;;;;;;26.95;8.05;;;16.90;99.90;;;;;;5106817;27;20043;-81
2021/09/25 04:00:42;;;;;;;32.38;8.48;;;16.90;99.90;;;;;;5114961;27;20397;-81
2021/09/25 04:03:45;;;;;;;33.03;8.85;;;16.90;99.90;;;;;;5095313;27;20043;-82
2021/09/25 04:06:12;;;;;;;32.63;8.35;;;16.90;99.90;;;;;;5095257;27;20077;-83
2021/09/25 04:08:38;;;;;;;35.95;8.57;;;16.90;99.90;;;;;;5105377;27;20043;-82
2021/09/25 04:11:04;;;;;;;33.60;8.77;;;16.90;99.90;;;;;;5106519;27;20122;-81
2021/09/25 04:13:29;;;;;;;35.33;8.68;;;16.90;99.90;;;;;;5103434;27;20079;-81
2021/09/25 04:15:55;;;;;;;35.83;8.30;;;16.90;99.90;;;;;;5087746;27;20450;-81
2021/09/25 04:18:21;;;;;;;39.72;8.85;;;16.80;99.90;;;;;;5126748;27;20591;-83
2021/09/25 04:20:46;;;;;;;30.05;8.27;;;16.80;99.90;;;;;;5094178;27;20054;-82
2021/09/25 04:23:12;;;;;;;37.42;9.13;;;16.80;99.90;;;;;;5108310;27;20038;-81
2021/09/25 04:25:39;;;;;;;29.75;8.73;;;16.70;99.90;;;;;;5121308;27;20029;-81
2021/09/25 04:28:07;;;;;;;40.45;9.38;;;16.80;99.90;;;;;;5120818;27;20054;-81
2021/09/25 04:30:34;;;;;;;33.28;9.60;;;16.70;99.90;;;;;;5126035;27;20485;-82
2021/09/25 04:33:02;;;;;;;37.22;9.02;;;16.70;99.90;;;;;;5088102;27;20133;-82
2021/09/25 04:35:28;;;;;;;30.95;9.05;;;16.60;99.90;;;;;;5108746;27;20403;-81
2021/09/25 04:37:54;;;;;;;38.92;9.18;;;16.70;99.90;;;;;;5104972;27;20035;-81
2021/09/25 04:40:20;;;;;;;41.58;9.55;;;16.60;99.90;;;;;;5105829;27;20053;-81
2021/09/25 04:42:45;;;;;;;36.13;9.40;;;16.60;99.90;;;;;;5108012;27;20027;-82
2021/09/25 04:45:14;;;;;;;32.42;9.07;;;16.60;99.90;;;;;;5104759;27;20440;-81
2021/09/25 04:47:40;;;;;;;32.92;8.88;;;16.60;99.90;;;;;;5100403;27;20043;-81
2021/09/25 04:50:08;;;;;;;33.45;9.52;;;16.60;99.90;;;;;;5108828;27;20095;-82
2021/09/25 04:52:34;;;;;;;38.97;8.85;;;16.60;99.90;;;;;;5107449;27;20130;-82
2021/09/25 04:55:00;;;;;;;30.65;9.38;;;16.60;99.90;;;;;;5105307;27;20115;-81
2021/09/25 04:57:26;;;;;;;36.70;9.80;;;16.60;99.90;;;;;;5103761;27;20027;-81
2021/09/25 04:59:52;;;;;;;38.60;9.80;;;16.50;99.90;;;;;;5120253;27;20047;-82
2021/09/25 05:02:18;;;;;;;37.97;10.13;;;16.60;99.90;;;;;;5102923;27;20039;-81
2021/09/25 05:04:43;;;;;;;39.55;9.10;;;16.50;99.90;;;;;;5103479;27;20035;-83
2021/09/25 05:07:10;;;;;;;35.00;9.05;;;16.50;99.90;;;;;;5089143;27;20427;-81
2021/09/25 05:09:37;;;;;;;37.15;9.45;;;16.50;99.90;;;;;;5103747;27;20408;-81
2021/09/25 05:12:03;;;;;;;36.35;9.75;;;16.50;99.90;;;;;;5084682;27;20050;-81
2021/09/25 05:14:29;;;;;;;40.85;9.77;;;16.50;99.90;;;;;;5123530;27;20055;-80
2021/09/25 05:16:56;;;;;;;33.00;9.73;;;16.50;99.90;;;;;;5084156;27;20074;-81
2021/09/25 05:19:22;;;;;;;31.02;9.38;;;16.40;99.90;;;;;;5103719;27;20126;-82
2021/09/25 05:21:47;;;;;;;32.15;9.93;;;16.40;99.90;;;;;;5124671;27;20118;-82
2021/09/25 05:24:13;;;;;;;41.80;9.30;;;16.40;99.90;;;;;;5107583;27;20043;-82
2021/09/25 05:26:41;;;;;;;35.72;10.13;;;16.30;99.90;;;;;;5104786;27;20039;-82
2021/09/25 05:29:07;;;;;;;39.45;10.60;;;16.30;99.90;;;;;;5107052;27;20039;-82
2021/09/25 05:31:33;;;;;;;36.17;10.10;;;16.30;99.90;;;;;;5127849;27;20036;-82
2021/09/25 05:33:58;;;;;;;37.33;10.63;;;16.30;99.90;;;;;;5090289;27;20083;-81
2021/09/25 05:36:25;;;;;;;40.28;10.50;;;16.30;99.90;;;;;;5109367;27;20031;-80
2021/09/25 05:38:51;;;;;;;33.90;9.68;;;16.30;99.90;;;;;;5084916;27;20047;-81
2021/09/25 05:41:17;;;;;;;40.30;11.10;;;16.30;99.90;;;;;;5088925;27;20036;-82
2021/09/25 05:43:42;;;;;;;29.65;10.13;;;16.40;99.90;;;;;;5106506;27;20111;-82
2021/09/25 05:46:08;;;;;;;42.20;10.48;;;16.40;99.90;;;;;;5125723;27;20040;-82
2021/09/25 05:48:34;;;;;;;39.47;11.25;;;16.30;99.90;;;;;;5086749;27;20229;-82
2021/09/25 05:51:01;;;;;;;46.60;11.50;;;16.40;99.90;;;;;;5127301;27;20355;-82
2021/09/25 05:53:27;;;;;;;42.25;11.23;;;16.40;99.90;;;;;;5091239;27;20039;-80
2021/09/25 05:55:52;;;;;;;45.15;12.38;;;16.50;99.90;;;;;;5098332;28;20063;-80
2021/09/25 05:58:18;;;;;;;40.00;11.60;;;16.40;99.90;;;;;;5103953;27;20074;-81
2021/09/25 06:00:44;;;;;;;33.55;11.43;;;16.50;99.90;;;;;;5105730;27;20038;-80
2021/09/25 06:03:09;;;;;;;45.78;12.05;;;16.50;99.90;;;;;;5098104;27;20375;-80
2021/09/25 06:05:35;;;;;;;34.60;11.50;;;16.50;99.90;;;;;;5083723;27;20514;-81
2021/09/25 06:08:03;;;;;;;38.35;11.63;;;16.50;99.90;;;;;;5110785;27;20035;-81
2021/09/25 06:10:30;;;;;;;35.25;11.90;;;16.60;99.90;;;;;;5126779;27;20439;-81
2021/09/25 06:12:56;;;;;;;44.40;12.65;;;16.60;99.90;;;;;;5104113;27;20047;-81
2021/09/25 06:15:21;;;;;;;35.20;13.00;;;16.60;99.90;;;;;;5121927;27;20519;-81
2021/09/25 06:17:47;;;;;;;37.55;12.73;;;16.70;99.90;;;;;;5102262;27;20325;-80
2021/09/25 06:20:13;;;;;;;41.42;12.45;;;16.60;99.90;;;;;;5122596;27;20035;-81
2021/09/25 06:22:39;;;;;;;38.67;12.52;;;16.70;99.90;;;;;;5079556;28;20047;-81
2021/09/25 06:25:06;;;;;;;39.88;12.63;;;16.70;99.90;;;;;;5120459;27;20039;-81
2021/09/25 06:27:33;;;;;;;35.92;12.43;;;16.80;99.90;;;;;;5105198;27;20095;-81
2021/09/25 06:29:59;;;;;;;35.72;12.63;;;16.80;99.90;;;;;;5107416;27;20447;-80
2021/09/25 06:32:25;;;;;;;35.78;12.13;;;16.90;99.90;;;;;;5107861;27;20039;-82
2021/09/25 06:34:52;;;;;;;39.08;13.27;;;16.90;99.90;;;;;;5096929;27;20089;-82
2021/09/25 06:37:17;;;;;;;36.78;12.52;;;17.10;99.90;;;;;;5102904;27;20047;-81
2021/09/25 06:39:43;;;;;;;42.13;13.00;;;17.00;99.90;;;;;;5104540;27;20044;-80
2021/09/25 06:42:09;;;;;;;37.50;12.32;;;17.00;99.90;;;;;;5088206;28;20063;-80
2021/09/25 06:44:34;;;;;;;33.08;11.82;;;17.10;99.90;;;;;;5095593;27;20046;-80
2021/09/25 06:47:00;;;;;;;34.92;12.10;;;17.10;99.90;;;;;;5098353;28;20505;-79
2021/09/25 06:49:26;;;;;;;33.88;12.13;;;17.10;99.90;;;;;;5078615;27;20480;-79
2021/09/25 06:51:51;;;;;;;38.75;12.02;;;17.20;99.90;;;;;;5089465;27;20122;-79
2021/09/25 06:54:17;;;;;;;36.70;12.13;;;17.20;99.90;;;;;;5105202;27;20039;-81
2021/09/25 06:56:43;;;;;;;36.92;11.95;;;17.30;99.90;;;;;;5083378;27;20028;-78
2021/09/25 06:59:09;;;;;;;33.45;11.55;;;17.30;99.90;;;;;;5107439;27;20426;-78
2021/09/25 07:01:35;;;;;;;34.42;11.27;;;17.40;99.90;;;;;;5102597;27;20047;-78
2021/09/25 07:04:01;;;;;;;36.80;11.52;;;17.40;99.90;;;;;;5084672;27;20058;-81
2021/09/25 07:06:27;;;;;;;40.38;11.85;;;17.40;99.90;;;;;;5125490;27;20038;-83
2021/09/25 07:08:52;;;;;;;39.05;12.35;;;17.50;99.90;;;;;;5129237;27;20496;-81
2021/09/25 07:11:18;;;;;;;36.70;11.35;;;17.50;99.90;;;;;;5091688;27;20050;-82
2021/09/25 07:13:44;;;;;;;38.20;11.50;;;17.60;99.90;;;;;;5089995;27;20493;-81
2021/09/25 07:16:11;;;;;;;35.67;10.82;;;17.60;99.90;;;;;;5089244;28;20044;-83
2021/09/25 07:18:38;;;;;;;37.00;11.15;;;17.70;99.90;;;;;;5102896;28;20344;-82
2021/09/25 07:21:05;;;;;;;33.90;11.25;;;17.70;99.90;;;;;;5090401;28;20059;-82
2021/09/25 07:23:32;;;;;;;33.10;11.15;;;17.80;99.90;;;;;;5084421;28;20054;-80
2021/09/25 07:25:58;;;;;;;23.13;8.38;;;17.90;99.90;;;;;;5083299;28;20101;-79
2021/09/25 07:28:24;;;;;;;28.20;9.48;;;18.00;99.90;;;;;;5097941;28;20039;-80
2021/09/25 07:30:51;;;;;;;17.63;6.88;;;18.10;99.90;;;;;;5101839;28;20070;-79
2021/09/25 07:33:18;;;;;;;33.28;9.32;;;18.20;99.90;;;;;;5106158;28;20036;-79
2021/09/25 07:35:45;;;;;;;26.30;8.07;;;18.30;99.90;;;;;;5100981;28;20467;-79
2021/09/25 07:38:11;;;;;;;14.98;5.70;;;18.30;99.90;;;;;;5101417;27;20046;-79
2021/09/25 07:40:37;;;;;;;24.33;8.98;;;18.40;99.90;;;;;;5085842;28;20051;-77
2021/09/25 07:43:04;;;;;;;25.45;8.45;;;18.60;99.90;;;;;;5101292;27;20055;-79
2021/09/25 07:45:30;;;;;;;34.30;9.48;;;18.60;99.90;;;;;;5092738;28;20146;-78
2021/09/25 07:47:56;;;;;;;22.08;8.68;;;18.70;99.90;;;;;;5127928;27;20442;-79
2021/09/25 07:50:22;;;;;;;22.60;7.45;;;18.80;99.90;;;;;;5109282;28;20028;-79
2021/09/25 07:52:49;;;;;;;28.40;8.38;;;18.90;99.90;;;;;;5100582;27;20522;-78
2021/09/25 07:55:15;;;;;;;27.42;7.57;;;18.90;99.90;;;;;;5110233;27;20051;-79
2021/09/25 07:57:41;;;;;;;20.67;7.45;;;19.10;99.90;;;;;;5095120;28;20051;-79
2021/09/25 08:00:10;;;;;;;19.08;7.35;;;19.20;99.90;;;;;;5089186;28;20118;-79
2021/09/25 08:02:36;;;;;;;16.10;5.47;;;19.30;99.90;;;;;;5107860;27;20052;-79
2021/09/25 08:05:02;;;;;;;19.45;6.60;;;19.30;99.90;;;;;;5110082;28;20435;-80
2021/09/25 08:07:28;;;;;;;22.42;6.45;;;19.30;99.90;;;;;;5086646;28;20398;-80
2021/09/25 08:09:54;;;;;;;19.23;6.80;;;19.30;99.90;;;;;;5089833;28;20052;-77
2021/09/25 08:12:20;;;;;;;17.50;5.60;;;19.30;99.90;;;;;;5108548;28;20055;-77
2021/09/25 08:14:46;;;;;;;23.92;6.95;;;19.30;99.90;;;;;;5100496;28;20059;-74
2021/09/25 08:17:12;;;;;;;20.17;7.13;;;19.30;99.90;;;;;;5098607;28;20091;-76
2021/09/25 08:19:37;;;;;;;18.15;6.15;;;19.20;99.90;;;;;;5111668;28;20145;-76
2021/09/25 08:22:03;;;;;;;22.05;6.70;;;19.20;99.90;;;;;;5096271;28;20058;-80
2021/09/25 08:24:30;;;;;;;20.88;6.85;;;19.20;99.90;;;;;;5109864;27;20059;-84
2021/09/25 08:26:56;;;;;;;19.50;7.00;;;19.10;99.90;;;;;;5113299;28;20048;-84
2021/09/25 08:29:23;;;;;;;19.00;6.90;;;19.20;99.90;;;;;;5112832;28;20059;-83
2021/09/25 08:31:52;;;;;;;24.55;7.40;;;19.30;99.90;;;;;;5096082;28;20508;-85
2021/09/25 08:34:18;;;;;;;24.92;7.88;;;19.20;99.90;;;;;;5113189;28;20035;-82
2021/09/25 08:36:45;;;;;;;23.58;7.63;;;19.10;99.90;;;;;;5113689;28;20367;-83
2021/09/25 08:39:11;;;;;;;23.20;7.20;;;19.20;99.90;;;;;;5113220;28;20140;-84
2021/09/25 08:41:40;;;;;;;27.73;7.20;;;19.10;99.90;;;;;;5110001;28;20109;-84
2021/09/25 08:44:06;;;;;;;22.95;6.60;;;19.20;99.90;;;;;;5094749;28;20495;-83
2021/09/25 08:46:33;;;;;;;20.58;6.40;;;19.30;99.90;;;;;;5113511;28;20201;-85
2021/09/25 08:48:59;;;;;;;19.80;6.53;;;19.30;99.90;;;;;;5112371;28;20051;-84
2021/09/25 08:51:24;;;;;;;20.67;6.75;;;19.40;99.90;;;;;;5113275;28;20423;-85
2021/09/25 08:53:51;;;;;;;20.38;6.75;;;19.40;99.90;;;;;;5111338;27;20462;-84
2021/09/25 08:56:17;;;;;;;19.30;6.18;;;19.50;99.90;;;;;;5107666;28;20039;-84
2021/09/25 08:58:45;;;;;;;19.20;6.70;;;19.50;99.90;;;;;;5084190;28;20371;-84
2021/09/25 09:01:24;;;;;;;21.90;7.28;;;19.60;99.90;;;;;;5106421;27;20090;-84
2021/09/25 09:03:52;;;;;;;20.73;6.63;;;19.60;99.90;;;;;;5088942;27;20255;-81
2021/09/25 09:06:27;;;;;;;23.08;6.72;;;19.60;99.90;;;;;;5111800;28;20038;-81
2021/09/25 09:08:55;;;;;;;19.85;6.30;;;19.70;99.90;;;;;;5105331;28;20078;-80
2021/09/25 09:11:24;;;;;;;16.33;6.05;;;19.80;99.90;;;;;;5095899;28;20040;-81
2021/09/25 09:13:53;;;;;;;15.35;5.82;;;19.80;99.90;;;;;;5074759;28;20146;-83
2021/09/25 09:16:20;;;;;;;18.25;6.72;;;19.80;99.90;;;;;;5098540;28;20066;-79
2021/09/25 09:18:47;;;;;;;14.57;5.68;;;19.90;99.90;;;;;;5104347;28;20139;-78
2021/09/25 09:21:15;;;;;;;20.73;6.32;;;20.00;99.90;;;;;;5103365;28;20058;-80
2021/09/25 09:23:54;;;;;;;18.50;6.25;;;20.00;99.90;;;;;;5085601;27;20120;-78
2021/09/25 09:26:23;;;;;;;15.18;6.15;;;20.10;99.90;;;;;;5084671;28;20047;-80
2021/09/25 09:28:50;;;;;;;17.80;6.20;;;20.20;99.90;;;;;;5083876;28;20079;-81
2021/09/25 09:31:18;;;;;;;19.80;6.65;;;20.30;99.90;;;;;;5089802;28;21738;-84
2021/09/25 09:33:56;;;;;;;17.70;6.05;;;20.30;99.90;;;;;;5082212;28;20040;-82
2021/09/25 09:36:26;;;;;;;17.30;6.65;;;20.30;99.90;;;;;;5092352;27;20056;-80
2021/09/25 09:39:15;;;;;;;16.23;6.07;;;20.40;99.90;;;;;;5087954;27;20051;-81
2021/09/25 09:41:48;;;;;;;19.40;5.82;;;20.40;99.90;;;;;;5086927;28;20035;-81
2021/09/25 09:44:19;;;;;;;16.88;5.93;;;20.50;99.90;;;;;;5097474;28;20499;-80
2021/09/25 09:46:49;;;;;;;15.18;5.53;;;20.60;99.90;;;;;;5089810;28;20104;-78
2021/09/25 09:49:18;;;;;;;15.88;5.70;;;20.60;99.90;;;;;;5103830;28;20051;-82
2021/09/25 09:51:45;;;;;;;20.77;6.00;;;20.60;99.90;;;;;;5097186;27;20130;-81
2021/09/25 09:54:23;;;;;;;14.50;6.00;;;20.70;99.90;;;;;;5095165;28;20036;-80
2021/09/25 09:56:51;;;;;;;18.42;5.47;;;20.70;99.90;;;;;;5083949;28;20524;-79
2021/09/25 09:59:17;;;;;;;23.02;6.20;;;20.80;99.90;;;;;;5077568;28;20062;-82
2021/09/25 10:01:46;;;;;;;19.10;6.47;;;21.00;99.90;;;;;;5103532;27;20143;-80
2021/09/25 10:04:13;;;;;;;15.13;5.57;;;21.10;99.90;;;;;;5095950;28;20139;-81
2021/09/25 10:06:39;;;;;;;13.98;6.00;;;21.20;99.90;;;;;;5097897;28;20437;-80
2021/09/25 10:09:07;;;;;;;13.77;5.43;;;21.10;99.90;;;;;;5079154;28;20127;-81
2021/09/25 10:11:35;;;;;;;13.80;4.88;;;21.10;99.90;;;;;;5097773;28;20090;-81
2021/09/25 10:14:03;;;;;;;21.88;5.85;;;21.20;99.90;;;;;;5084823;28;20063;-84
2021/09/25 10:16:31;;;;;;;18.83;5.88;;;21.20;99.90;;;;;;5121105;27;20449;-81
2021/09/25 10:18:57;;;;;;;18.77;5.47;;;21.20;99.90;;;;;;5120441;27;20101;-78
2021/09/25 10:21:34;;;;;;;15.10;5.93;;;21.30;99.90;;;;;;5097880;27;20039;-80
2021/09/25 10:27:39;;;;;;;16.30;5.47;;;21.30;99.90;;;;;;5027176;28;20037;-80
2021/09/25 10:30:35;;;;;;;16.23;5.70;;;21.40;99.90;;;;;;5008720;28;20472;-81
2021/09/25 10:33:14;;;;;;;15.20;5.88;;;21.40;99.90;;;;;;5012516;28;20073;-79
2021/09/25 10:35:39;;;;;;;18.92;6.25;;;21.60;99.90;;;;;;5032089;28;20045;-81
2021/09/25 10:38:08;;;;;;;15.77;5.90;;;21.70;99.90;;;;;;5006731;28;20125;-79
2021/09/25 10:40:37;;;;;;;15.65;5.60;;;21.70;99.90;;;;;;5022222;28;20128;-80
2021/09/25 10:43:28;;;;;;;13.07;5.57;;;21.80;99.90;;;;;;4991237;28;20074;-79
2021/09/25 10:45:56;;;;;;;13.70;5.35;;;22.00;99.90;;;;;;5040331;28;20049;-78
2021/09/25 10:48:24;;;;;;;23.13;9.10;;;21.90;99.90;;;;;;5023250;28;20080;-78
2021/09/25 10:51:02;;;;;;;23.13;8.02;;;22.00;99.90;;;;;;5007323;28;20401;-79
2021/09/25 10:53:33;;;;;;;15.95;6.88;;;22.00;99.90;;;;;;5010946;28;20140;-79
2021/09/25 10:56:03;;;;;;;17.33;7.65;;;22.00;99.90;;;;;;5046563;28;20441;-78
2021/09/25 10:58:32;;;;;;;17.40;7.57;;;22.00;99.90;;;;;;5088039;27;20047;-79
2021/09/25 11:01:15;;;;;;;17.83;8.10;;;22.10;99.90;;;;;;5105232;27;20092;-80
2021/09/25 11:03:46;;;;;;;27.17;8.48;;;22.20;99.90;;;;;;5083159;27;20043;-81
2021/09/25 11:06:25;;;;;;;21.25;7.28;;;22.30;99.90;;;;;;5092670;28;20036;-79
2021/09/25 11:08:56;;;;;;;18.80;7.07;;;22.40;99.90;;;;;;5107988;28;20109;-80
2021/09/25 11:11:37;;;;;;;16.38;6.43;;;22.30;99.90;;;;;;5103671;28;20039;-79
2021/09/25 11:14:23;;;;;;;19.73;7.97;;;22.50;99.90;;;;;;5087098;28;20055;-79
2021/09/25 11:17:06;;;;;;;18.88;7.50;;;22.50;99.90;;;;;;5085083;27;20130;-79
2021/09/25 11:19:38;;;;;;;16.58;7.18;;;22.60;99.90;;;;;;5109457;28;20043;-80
2021/09/25 11:22:10;;;;;;;17.77;6.80;;;22.60;99.90;;;;;;5104249;28;20160;-82
2021/09/25 11:25:11;;;;;;;20.02;6.32;;;22.50;99.90;;;;;;5108228;28;20053;-81
2021/09/25 11:27:39;;;;;;;19.63;7.55;;;22.60;99.90;;;;;;5098277;28;20146;-80
2021/09/25 11:30:10;;;;;;;15.52;6.60;;;22.70;99.90;;;;;;5099825;28;20079;-81
2021/09/25 11:32:41;;;;;;;17.67;6.38;;;22.60;99.90;;;;;;5079446;28;20493;-82
2021/09/25 11:35:16;;;;;;;18.27;6.43;;;22.60;99.90;;;;;;5083388;28;20055;-82
2021/09/25 11:37:56;;;;;;;17.00;7.10;;;22.50;99.90;;;;;;5095487;28;20031;-82
2021/09/25 11:40:29;;;;;;;16.27;6.78;;;22.20;99.90;;;;;;5113686;28;20055;-82
2021/09/25 11:43:06;;;;;;;17.17;6.47;;;22.20;99.90;;;;;;5092666;28;20113;-82
2021/09/25 11:45:47;;;;;;;17.50;7.38;;;22.00;99.90;;;;;;5090327;28;20362;-82
2021/09/25 11:48:16;;;;;;;15.75;6.55;;;21.90;99.90;;;;;;5110717;28;20051;-82
2021/09/25 11:50:48;;;;;;;17.83;6.65;;;21.70;99.90;;;;;;5093582;28;20047;-82
2021/09/25 11:53:16;;;;;;;19.67;6.45;;;21.50;99.90;;;;;;5105411;28;20062;-82
2021/09/25 11:55:44;;;;;;;20.02;7.22;;;21.40;99.90;;;;;;5097060;28;20087;-81
2021/09/25 11:58:13;;;;;;;17.27;6.55;;;21.20;99.90;;;;;;5093021;28;20115;-82
2021/09/25 12:00:48;;;;;;;19.73;7.05;;;21.20;99.90;;;;;;5111642;28;20096;-81
2021/09/25 12:03:15;;;;;;;17.67;6.90;;;21.10;99.90;;;;;;5093649;28;20096;-81
2021/09/25 12:05:51;;;;;;;18.75;6.75;;;21.00;99.90;;;;;;5113452;28;20043;-81
2021/09/25 12:08:21;;;;;;;18.73;6.85;;;20.90;99.90;;;;;;5112784;28;20174;-81
2021/09/25 12:10:52;;;;;;;21.73;7.93;;;20.80;99.90;;;;;;5096634;28;20051;-81
2021/09/25 12:13:21;;;;;;;16.85;6.85;;;20.70;99.90;;;;;;5131413;28;20386;-81
2021/09/25 12:15:49;;;;;;;18.30;7.40;;;20.70;99.90;;;;;;5109099;27;20051;-82
2021/09/25 12:18:29;;;;;;;22.52;7.38;;;20.60;99.90;;;;;;5133181;27;20039;-81
2021/09/25 12:21:01;;;;;;;19.45;6.70;;;20.60;99.90;;;;;;5100130;27;20047;-82
2021/09/25 12:23:41;;;;;;;20.83;7.13;;;20.60;99.90;;;;;;5116379;27;20050;-82
2021/09/25 12:26:08;;;;;;;23.70;7.18;;;20.50;99.90;;;;;;5134828;27;20411;-81
2021/09/25 12:28:51;;;;;;;27.30;9.18;;;20.50;99.90;;;;;;5116324;27;20043;-81
2021/09/25 12:31:34;;;;;;;17.65;7.32;;;20.50;99.90;;;;;;5114376;28;20048;-82
2021/09/25 12:34:01;;;;;;;17.92;7.00;;;20.50;99.90;;;;;;5077798;28;20089;-82
2021/09/25 12:36:35;;;;;;;22.25;8.13;;;20.40;99.90;;;;;;5084877;27;20217;-81
2021/09/25 12:39:10;;;;;;;19.48;8.27;;;20.40;99.90;;;;;;5097777;27;20202;-82
2021/09/25 12:41:39;;;;;;;13.48;7.28;;;20.30;99.90;;;;;;5096791;27;20042;-79
2021/09/25 12:44:07;;;;;;;18.15;6.55;;;20.20;99.90;;;;;;5106885;27;20047;-79